AAL335 KBFI-KLAX
Flight info
| Callsign | AAL335 |
|---|---|
| Flight time | N/A |
| Altitude | 33000 |
| Route | ZIGED TAOMA J5 LKV FRA FRAME TAFTO MUPTT IRNMN2 |
| Aircraft | B789/H-SDE1E2E3FGHIJ2J3J4J5M1RWXY/LB1D1 |
Departure
| Time | 2026-04-26 01:58 |
|---|---|
| Airport | King County International Airport - Boeing Field (KBFI) |
Arrival
| Time | N/A |
|---|---|
| Airport | Los Angeles International Airport (KLAX) |
| Time | Latitude | Longitude | Altitude | Speed | Heading |
|---|---|---|---|---|---|
| 2026-04-26 01:22 | 47.53668 | -122.31258 | 33 ft | 0 kts | 271° |
| 2026-04-26 01:45 | 47.53668 | -122.31238 | 31 ft | 4 kts | 272° |
| 2026-04-26 01:45 | 47.53667 | -122.31201 | 30 ft | 4 kts | 288° |
| 2026-04-26 01:45 | 47.53653 | -122.31172 | 32 ft | 4 kts | 331° |
| 2026-04-26 01:46 | 47.53637 | -122.31159 | 33 ft | 1 kts | 326° |
| 2026-04-26 01:49 | 47.53640 | -122.31162 | 31 ft | 1 kts | 326° |
| 2026-04-26 01:49 | 47.53648 | -122.31170 | 30 ft | 2 kts | 326° |
| 2026-04-26 01:49 | 47.53660 | -122.31183 | 31 ft | 3 kts | 326° |
| 2026-04-26 01:49 | 47.53678 | -122.31201 | 31 ft | 4 kts | 326° |
| 2026-04-26 01:50 | 47.53701 | -122.31224 | 33 ft | 5 kts | 326° |
| 2026-04-26 01:50 | 47.53730 | -122.31254 | 33 ft | 6 kts | 326° |
| 2026-04-26 01:50 | 47.53762 | -122.31284 | 33 ft | 6 kts | 330° |
| 2026-04-26 01:50 | 47.53798 | -122.31314 | 33 ft | 7 kts | 330° |
| 2026-04-26 01:51 | 47.53840 | -122.31351 | 33 ft | 7 kts | 329° |
| 2026-04-26 01:51 | 47.53887 | -122.31385 | 33 ft | 8 kts | 345° |
| 2026-04-26 01:51 | 47.53932 | -122.31373 | 33 ft | 6 kts | 38° |
| 2026-04-26 01:51 | 47.53952 | -122.31328 | 33 ft | 6 kts | 59° |
| 2026-04-26 01:52 | 47.53974 | -122.31266 | 33 ft | 7 kts | 71° |
| 2026-04-26 01:52 | 47.53964 | -122.31226 | 32 ft | 4 kts | 132° |
| 2026-04-26 01:52 | 47.53940 | -122.31196 | 32 ft | 6 kts | 143° |
| 2026-04-26 01:52 | 47.53895 | -122.31153 | 32 ft | 9 kts | 150° |
| 2026-04-26 01:53 | 47.53833 | -122.31100 | 31 ft | 11 kts | 150° |
| 2026-04-26 01:53 | 47.53758 | -122.31036 | 33 ft | 14 kts | 150° |
| 2026-04-26 01:53 | 47.53667 | -122.30959 | 32 ft | 17 kts | 150° |
| 2026-04-26 01:53 | 47.53559 | -122.30871 | 32 ft | 19 kts | 151° |
| 2026-04-26 01:54 | 47.53435 | -122.30773 | 31 ft | 21 kts | 153° |
| 2026-04-26 01:54 | 47.53296 | -122.30670 | 31 ft | 23 kts | 154° |
| 2026-04-26 01:54 | 47.53159 | -122.30538 | 31 ft | 24 kts | 142° |
| 2026-04-26 01:54 | 47.53017 | -122.30412 | 31 ft | 26 kts | 150° |
| 2026-04-26 01:55 | 47.52859 | -122.30279 | 32 ft | 27 kts | 149° |
| 2026-04-26 01:55 | 47.52694 | -122.30137 | 31 ft | 28 kts | 150° |
| 2026-04-26 01:55 | 47.52518 | -122.29992 | 31 ft | 29 kts | 150° |
| 2026-04-26 01:55 | 47.52339 | -122.29838 | 32 ft | 30 kts | 150° |
| 2026-04-26 01:56 | 47.52154 | -122.29688 | 32 ft | 31 kts | 152° |
| 2026-04-26 01:56 | 47.51964 | -122.29532 | 32 ft | 32 kts | 150° |
| 2026-04-26 01:56 | 47.51768 | -122.29368 | 32 ft | 33 kts | 151° |
| 2026-04-26 01:56 | 47.51664 | -122.29207 | 32 ft | 10 kts | 70° |
| 2026-04-26 01:57 | 47.51699 | -122.29176 | 32 ft | 5 kts | 1° |
| 2026-04-26 01:57 | 47.51737 | -122.29192 | 31 ft | 7 kts | 341° |
| 2026-04-26 01:57 | 47.51790 | -122.29229 | 29 ft | 10 kts | 330° |
| 2026-04-26 01:57 | 47.51855 | -122.29284 | 30 ft | 12 kts | 330° |
| 2026-04-26 01:58 | 47.51999 | -122.29404 | 29 ft | 49 kts | 330° |
| 2026-04-26 01:58 | 47.52520 | -122.29845 | 30 ft | 123 kts | 330° |
| 2026-04-26 01:58 | 47.53440 | -122.30622 | 140 ft | 171 kts | 325° |
| 2026-04-26 01:58 | 47.54441 | -122.31536 | 697 ft | 179 kts | 329° |
| 2026-04-26 01:59 | 47.55643 | -122.32501 | 846 ft | 211 kts | 332° |
| 2026-04-26 01:59 | 47.56918 | -122.33563 | 1535 ft | 212 kts | 331° |
| 2026-04-26 01:59 | 47.58255 | -122.34733 | 1821 ft | 237 kts | 330° |
| 2026-04-26 01:59 | 47.59618 | -122.36219 | 2281 ft | 246 kts | 309° |
| 2026-04-26 02:00 | 47.60177 | -122.38481 | 2861 ft | 258 kts | 272° |
| 2026-04-26 02:00 | 47.59607 | -122.41006 | 3923 ft | 267 kts | 232° |
| 2026-04-26 02:00 | 47.58117 | -122.42608 | 4970 ft | 274 kts | 195° |
| 2026-04-26 02:00 | 47.56215 | -122.42637 | 6105 ft | 273 kts | 158° |
| 2026-04-26 02:01 | 47.54701 | -122.41069 | 7169 ft | 268 kts | 123° |
| 2026-04-26 02:01 | 47.53909 | -122.38624 | 8135 ft | 270 kts | 108° |
| 2026-04-26 02:01 | 47.53204 | -122.36027 | 9160 ft | 274 kts | 112° |
| 2026-04-26 02:01 | 47.52313 | -122.33512 | 10148 ft | 280 kts | 119° |
| 2026-04-26 02:02 | 47.51147 | -122.31046 | 10611 ft | 306 kts | 127° |
| 2026-04-26 02:02 | 47.49585 | -122.28707 | 10909 ft | 335 kts | 139° |
| 2026-04-26 02:02 | 47.47571 | -122.26696 | 11177 ft | 361 kts | 147° |
| 2026-04-26 02:02 | 47.45377 | -122.24862 | 12141 ft | 364 kts | 149° |
| 2026-04-26 02:03 | 47.43162 | -122.22974 | 12955 ft | 371 kts | 146° |
| 2026-04-26 02:03 | 47.40982 | -122.20845 | 13790 ft | 376 kts | 143° |
| 2026-04-26 02:03 | 47.38795 | -122.18668 | 14518 ft | 382 kts | 144° |
| 2026-04-26 02:03 | 47.36563 | -122.16560 | 15215 ft | 389 kts | 146° |
| 2026-04-26 02:04 | 47.34234 | -122.14449 | 15911 ft | 396 kts | 149° |
| 2026-04-26 02:04 | 47.31615 | -122.13102 | 16585 ft | 406 kts | 169° |
| 2026-04-26 02:04 | 47.28763 | -122.12763 | 17201 ft | 415 kts | 176° |
| 2026-04-26 02:04 | 47.25856 | -122.12597 | 17930 ft | 420 kts | 177° |
| 2026-04-26 02:05 | 47.22909 | -122.12464 | 18519 ft | 426 kts | 177° |
| 2026-04-26 02:05 | 47.19934 | -122.12287 | 19266 ft | 427 kts | 176° |
| 2026-04-26 02:05 | 47.17968 | -122.12155 | 19740 ft | 429 kts | 176° |
| 2026-04-26 02:05 | 47.14984 | -122.11965 | 20407 ft | 431 kts | 177° |
| 2026-04-26 02:06 | 47.11980 | -122.11794 | 21091 ft | 433 kts | 177° |
| 2026-04-26 02:06 | 47.08958 | -122.11592 | 21706 ft | 435 kts | 174° |
| 2026-04-26 02:06 | 47.05985 | -122.10727 | 22280 ft | 437 kts | 164° |
| 2026-04-26 02:06 | 47.03064 | -122.09465 | 22862 ft | 439 kts | 162° |
| 2026-04-26 02:07 | 47.00138 | -122.08119 | 23401 ft | 443 kts | 163° |
| 2026-04-26 02:07 | 46.97137 | -122.06987 | 23865 ft | 446 kts | 167° |
| 2026-04-26 02:07 | 46.94098 | -122.05962 | 24298 ft | 449 kts | 166° |
| 2026-04-26 02:07 | 46.91054 | -122.04828 | 24718 ft | 452 kts | 165° |
| 2026-04-26 02:08 | 46.88016 | -122.03617 | 25141 ft | 455 kts | 165° |
| 2026-04-26 02:08 | 46.84939 | -122.02439 | 25577 ft | 457 kts | 166° |
| 2026-04-26 02:08 | 46.81863 | -122.01312 | 25987 ft | 460 kts | 166° |
| 2026-04-26 02:08 | 46.78738 | -122.00151 | 26395 ft | 462 kts | 165° |
| 2026-04-26 02:09 | 46.75614 | -121.98963 | 26745 ft | 465 kts | 165° |
| 2026-04-26 02:09 | 46.72476 | -121.97775 | 27126 ft | 467 kts | 165° |
| 2026-04-26 02:09 | 46.69354 | -121.96611 | 27480 ft | 470 kts | 166° |
| 2026-04-26 02:09 | 46.66176 | -121.95428 | 27822 ft | 473 kts | 165° |
| 2026-04-26 02:10 | 46.62978 | -121.94230 | 28150 ft | 475 kts | 165° |
| 2026-04-26 02:10 | 46.59770 | -121.93028 | 28489 ft | 477 kts | 165° |
| 2026-04-26 02:10 | 46.56546 | -121.91826 | 28948 ft | 477 kts | 165° |
| 2026-04-26 02:10 | 46.53335 | -121.90632 | 29437 ft | 476 kts | 165° |
| 2026-04-26 02:11 | 46.50137 | -121.89442 | 29925 ft | 475 kts | 165° |
| 2026-04-26 02:11 | 46.46938 | -121.88252 | 30324 ft | 474 kts | 165° |
| 2026-04-26 02:11 | 46.43805 | -121.87089 | 30674 ft | 474 kts | 165° |
| 2026-04-26 02:11 | 46.40616 | -121.85908 | 31090 ft | 473 kts | 165° |
| 2026-04-26 02:12 | 46.37423 | -121.84725 | 31478 ft | 473 kts | 165° |
| 2026-04-26 02:12 | 46.34234 | -121.83545 | 31891 ft | 472 kts | 165° |
| 2026-04-26 02:12 | 46.31063 | -121.82374 | 32306 ft | 471 kts | 165° |
| 2026-04-26 02:12 | 46.27884 | -121.81202 | 32721 ft | 471 kts | 165° |
| 2026-04-26 02:13 | 46.24694 | -121.80026 | 32843 ft | 475 kts | 165° |
| 2026-04-26 02:13 | 46.18317 | -121.77681 | 32831 ft | 469 kts | 165° |
| 2026-04-26 02:14 | 46.12025 | -121.75371 | 32834 ft | 466 kts | 165° |
| 2026-04-26 02:14 | 46.05735 | -121.73069 | 32832 ft | 466 kts | 165° |
| 2026-04-26 02:15 | 45.99504 | -121.70793 | 32831 ft | 465 kts | 165° |
| 2026-04-26 02:15 | 45.93220 | -121.68503 | 32833 ft | 465 kts | 165° |
| 2026-04-26 02:16 | 45.86947 | -121.66223 | 32834 ft | 465 kts | 165° |
| 2026-04-26 02:16 | 45.80668 | -121.63946 | 32829 ft | 465 kts | 165° |
| 2026-04-26 02:17 | 45.74388 | -121.61673 | 32831 ft | 465 kts | 165° |
| 2026-04-26 02:17 | 45.68157 | -121.59423 | 32833 ft | 465 kts | 165° |
| 2026-04-26 02:18 | 45.61872 | -121.57159 | 32836 ft | 465 kts | 165° |
| 2026-04-26 02:18 | 45.55588 | -121.54901 | 32837 ft | 466 kts | 165° |
| 2026-04-26 02:19 | 45.49298 | -121.52646 | 32839 ft | 466 kts | 166° |
| 2026-04-26 02:19 | 45.43000 | -121.50393 | 32842 ft | 467 kts | 166° |
| 2026-04-26 02:20 | 45.36698 | -121.48145 | 32845 ft | 467 kts | 166° |
| 2026-04-26 02:20 | 45.30398 | -121.45901 | 32847 ft | 467 kts | 166° |
| 2026-04-26 02:21 | 45.24079 | -121.43657 | 32854 ft | 468 kts | 166° |
| 2026-04-26 02:21 | 45.17752 | -121.41414 | 32858 ft | 468 kts | 166° |
| 2026-04-26 02:22 | 45.11472 | -121.39194 | 32856 ft | 468 kts | 166° |
| 2026-04-26 02:22 | 45.05134 | -121.36957 | 32862 ft | 469 kts | 166° |
| 2026-04-26 02:23 | 44.98799 | -121.34727 | 32857 ft | 469 kts | 166° |
| 2026-04-26 02:23 | 44.92462 | -121.32502 | 32862 ft | 469 kts | 166° |
| 2026-04-26 02:24 | 44.86167 | -121.30296 | 32865 ft | 469 kts | 166° |
| 2026-04-26 02:24 | 44.79835 | -121.28082 | 32865 ft | 469 kts | 166° |
| 2026-04-26 02:25 | 44.73491 | -121.25869 | 32867 ft | 469 kts | 166° |
| 2026-04-26 02:25 | 44.67161 | -121.23666 | 32864 ft | 468 kts | 166° |
| 2026-04-26 02:26 | 44.60832 | -121.21468 | 32864 ft | 468 kts | 166° |
| 2026-04-26 02:26 | 44.54521 | -121.19281 | 32854 ft | 467 kts | 166° |
| 2026-04-26 02:27 | 44.48206 | -121.17099 | 32846 ft | 467 kts | 166° |
| 2026-04-26 02:27 | 44.41890 | -121.14920 | 32840 ft | 467 kts | 166° |
| 2026-04-26 02:28 | 44.35613 | -121.12760 | 32836 ft | 468 kts | 166° |
| 2026-04-26 02:28 | 44.29290 | -121.10588 | 32830 ft | 467 kts | 166° |
| 2026-04-26 02:29 | 44.22972 | -121.08424 | 32828 ft | 467 kts | 166° |
| 2026-04-26 02:29 | 44.16660 | -121.06266 | 32829 ft | 467 kts | 167° |
| 2026-04-26 02:30 | 44.10348 | -121.04112 | 32828 ft | 467 kts | 167° |
| 2026-04-26 02:30 | 44.04025 | -121.01960 | 32830 ft | 467 kts | 167° |
| 2026-04-26 02:31 | 43.97705 | -120.99813 | 32835 ft | 467 kts | 167° |
| 2026-04-26 02:31 | 43.91380 | -120.97670 | 32833 ft | 467 kts | 167° |
| 2026-04-26 02:32 | 43.85108 | -120.95549 | 32837 ft | 467 kts | 167° |
| 2026-04-26 02:32 | 43.78791 | -120.93417 | 32840 ft | 466 kts | 167° |
| 2026-04-26 02:33 | 43.72500 | -120.91300 | 32837 ft | 466 kts | 168° |
| 2026-04-26 02:33 | 43.66185 | -120.89178 | 32837 ft | 465 kts | 168° |
| 2026-04-26 02:34 | 43.59891 | -120.87067 | 32828 ft | 464 kts | 168° |
| 2026-04-26 02:34 | 43.53654 | -120.84981 | 32819 ft | 464 kts | 168° |
| 2026-04-26 02:35 | 43.47379 | -120.82886 | 32815 ft | 463 kts | 168° |
| 2026-04-26 02:35 | 43.41128 | -120.80804 | 32809 ft | 461 kts | 168° |
| 2026-04-26 02:36 | 43.34898 | -120.78733 | 32802 ft | 460 kts | 169° |
| 2026-04-26 02:36 | 43.28722 | -120.76685 | 32799 ft | 461 kts | 169° |
| 2026-04-26 02:37 | 43.22429 | -120.74602 | 32798 ft | 461 kts | 169° |
| 2026-04-26 02:37 | 43.16188 | -120.72540 | 32795 ft | 460 kts | 169° |
| 2026-04-26 02:38 | 43.09965 | -120.70489 | 32785 ft | 459 kts | 169° |
| 2026-04-26 02:38 | 43.03761 | -120.68448 | 32795 ft | 458 kts | 169° |
| 2026-04-26 02:39 | 42.97580 | -120.66420 | 32784 ft | 456 kts | 170° |
| 2026-04-26 02:39 | 42.91411 | -120.64399 | 32795 ft | 455 kts | 170° |
| 2026-04-26 02:40 | 42.85285 | -120.62396 | 32789 ft | 454 kts | 170° |
| 2026-04-26 02:40 | 42.79138 | -120.60391 | 32791 ft | 453 kts | 171° |
| 2026-04-26 02:41 | 42.72991 | -120.58390 | 32789 ft | 452 kts | 171° |
| 2026-04-26 02:41 | 42.66912 | -120.56415 | 32797 ft | 452 kts | 171° |
| 2026-04-26 02:42 | 42.60797 | -120.54433 | 32807 ft | 451 kts | 171° |
| 2026-04-26 02:42 | 42.54687 | -120.52455 | 32802 ft | 450 kts | 171° |
| 2026-04-26 02:43 | 42.45523 | -120.50047 | 32816 ft | 446 kts | 177° |
| 2026-04-26 02:43 | 42.39369 | -120.48882 | 32813 ft | 446 kts | 177° |
| 2026-04-26 02:44 | 42.33217 | -120.47777 | 32808 ft | 445 kts | 178° |
| 2026-04-26 02:44 | 42.27115 | -120.46657 | 32801 ft | 444 kts | 178° |
| 2026-04-26 02:45 | 42.20997 | -120.45547 | 32796 ft | 443 kts | 178° |
| 2026-04-26 02:45 | 42.14884 | -120.44436 | 32795 ft | 442 kts | 178° |
| 2026-04-26 02:46 | 42.08795 | -120.43333 | 32798 ft | 441 kts | 178° |
| 2026-04-26 02:46 | 42.02706 | -120.42232 | 32793 ft | 441 kts | 178° |
| 2026-04-26 02:47 | 41.96631 | -120.41135 | 32787 ft | 440 kts | 178° |
| 2026-04-26 02:47 | 41.90559 | -120.40041 | 32783 ft | 440 kts | 178° |
| 2026-04-26 02:48 | 41.84490 | -120.38950 | 32770 ft | 440 kts | 178° |
| 2026-04-26 02:48 | 41.78423 | -120.37861 | 32755 ft | 439 kts | 178° |
| 2026-04-26 02:49 | 41.72362 | -120.36776 | 32761 ft | 439 kts | 178° |
| 2026-04-26 02:49 | 41.66352 | -120.35701 | 32766 ft | 438 kts | 178° |
| 2026-04-26 02:50 | 41.60314 | -120.34624 | 32765 ft | 438 kts | 178° |
| 2026-04-26 02:50 | 41.54262 | -120.33546 | 32768 ft | 438 kts | 178° |
| 2026-04-26 02:51 | 41.48223 | -120.32472 | 32766 ft | 438 kts | 178° |
| 2026-04-26 02:51 | 41.42189 | -120.31402 | 32772 ft | 437 kts | 178° |
| 2026-04-26 02:52 | 41.37162 | -120.30511 | 32771 ft | 438 kts | 178° |
| 2026-04-26 02:52 | 41.31119 | -120.29442 | 32758 ft | 438 kts | 178° |
| 2026-04-26 02:53 | 41.25083 | -120.28378 | 32746 ft | 438 kts | 178° |
| 2026-04-26 02:53 | 41.19031 | -120.27311 | 32743 ft | 438 kts | 178° |
| 2026-04-26 02:54 | 41.12982 | -120.26247 | 32734 ft | 438 kts | 178° |
| 2026-04-26 02:54 | 41.06931 | -120.25185 | 32729 ft | 438 kts | 177° |
| 2026-04-26 02:55 | 41.00887 | -120.24126 | 32730 ft | 438 kts | 177° |
| 2026-04-26 02:55 | 40.94857 | -120.23072 | 32724 ft | 437 kts | 177° |
| 2026-04-26 02:56 | 40.88859 | -120.22025 | 32721 ft | 437 kts | 177° |
| 2026-04-26 02:56 | 40.82823 | -120.20973 | 32715 ft | 436 kts | 177° |
| 2026-04-26 02:57 | 40.76796 | -120.19925 | 32711 ft | 436 kts | 177° |
| 2026-04-26 02:57 | 40.70792 | -120.18882 | 32711 ft | 434 kts | 177° |
| 2026-04-26 02:58 | 40.64789 | -120.17843 | 32706 ft | 434 kts | 177° |
| 2026-04-26 02:58 | 40.58841 | -120.16814 | 32700 ft | 434 kts | 177° |
| 2026-04-26 02:59 | 40.52855 | -120.15780 | 32702 ft | 433 kts | 176° |
| 2026-04-26 02:59 | 40.46880 | -120.14750 | 32703 ft | 433 kts | 176° |
| 2026-04-26 03:00 | 40.40914 | -120.13724 | 32710 ft | 432 kts | 176° |
| 2026-04-26 03:00 | 40.34949 | -120.12700 | 32704 ft | 431 kts | 176° |
| 2026-04-26 03:01 | 40.28993 | -120.11679 | 32708 ft | 431 kts | 176° |
| 2026-04-26 03:01 | 40.23073 | -120.10666 | 32709 ft | 431 kts | 176° |
| 2026-04-26 03:02 | 40.17120 | -120.09649 | 32706 ft | 432 kts | 176° |
| 2026-04-26 03:02 | 40.11153 | -120.08632 | 32712 ft | 433 kts | 176° |
| 2026-04-26 03:03 | 40.05161 | -120.07612 | 32710 ft | 434 kts | 176° |
| 2026-04-26 03:03 | 39.99167 | -120.06593 | 32716 ft | 434 kts | 176° |
| 2026-04-26 03:04 | 39.93456 | -120.05624 | 32736 ft | 434 kts | 176° |
| 2026-04-26 03:04 | 39.87458 | -120.04609 | 32752 ft | 435 kts | 175° |
| 2026-04-26 03:05 | 39.81454 | -120.03593 | 32767 ft | 435 kts | 175° |
| 2026-04-26 03:05 | 39.75455 | -120.02582 | 32784 ft | 435 kts | 175° |
| 2026-04-26 03:06 | 39.69485 | -120.01576 | 32791 ft | 435 kts | 175° |
| 2026-04-26 03:06 | 39.63497 | -120.00570 | 32791 ft | 436 kts | 175° |
| 2026-04-26 03:07 | 39.57468 | -119.99558 | 32785 ft | 436 kts | 175° |
| 2026-04-26 03:07 | 39.51641 | -119.98581 | 32739 ft | 436 kts | 175° |
| 2026-04-26 03:08 | 39.45512 | -119.97556 | 32745 ft | 436 kts | 175° |
| 2026-04-26 03:08 | 39.39485 | -119.96550 | 32825 ft | 437 kts | 174° |
| 2026-04-26 03:09 | 39.33442 | -119.95542 | 32830 ft | 437 kts | 174° |
| 2026-04-26 03:09 | 39.27437 | -119.94543 | 32829 ft | 438 kts | 174° |
| 2026-04-26 03:10 | 39.21398 | -119.93540 | 32777 ft | 438 kts | 174° |
| 2026-04-26 03:10 | 39.15349 | -119.92537 | 32780 ft | 438 kts | 174° |
| 2026-04-26 03:11 | 39.09299 | -119.91536 | 32778 ft | 438 kts | 174° |
| 2026-04-26 03:11 | 39.03242 | -119.90535 | 32788 ft | 438 kts | 174° |
| 2026-04-26 03:12 | 38.97230 | -119.89543 | 32842 ft | 438 kts | 174° |
| 2026-04-26 03:12 | 38.91176 | -119.88546 | 32846 ft | 438 kts | 174° |
| 2026-04-26 03:13 | 38.85139 | -119.87554 | 32843 ft | 438 kts | 174° |
| 2026-04-26 03:13 | 38.79083 | -119.86560 | 32832 ft | 438 kts | 174° |
| 2026-04-26 03:14 | 38.73030 | -119.85568 | 32830 ft | 438 kts | 174° |
| 2026-04-26 03:14 | 38.66982 | -119.84579 | 32821 ft | 438 kts | 174° |
| 2026-04-26 03:15 | 38.60936 | -119.83592 | 32813 ft | 437 kts | 174° |
| 2026-04-26 03:15 | 38.54943 | -119.82615 | 32810 ft | 437 kts | 174° |
| 2026-04-26 03:16 | 38.48901 | -119.81632 | 32816 ft | 437 kts | 174° |
| 2026-04-26 03:16 | 38.42866 | -119.80652 | 32829 ft | 437 kts | 174° |
| 2026-04-26 03:17 | 38.36836 | -119.79674 | 32835 ft | 437 kts | 174° |
| 2026-04-26 03:17 | 38.30792 | -119.78695 | 32843 ft | 437 kts | 174° |
| 2026-04-26 03:18 | 38.24785 | -119.77725 | 32845 ft | 438 kts | 174° |
| 2026-04-26 03:18 | 38.18735 | -119.76748 | 32856 ft | 438 kts | 174° |
| 2026-04-26 03:19 | 38.12689 | -119.75774 | 32860 ft | 438 kts | 174° |
| 2026-04-26 03:19 | 38.06641 | -119.74802 | 32870 ft | 438 kts | 174° |
| 2026-04-26 03:20 | 38.00599 | -119.73832 | 32874 ft | 437 kts | 174° |
| 2026-04-26 03:20 | 37.94554 | -119.72863 | 32874 ft | 438 kts | 174° |
| 2026-04-26 03:21 | 37.88523 | -119.71898 | 32885 ft | 437 kts | 174° |
| 2026-04-26 03:21 | 37.82479 | -119.70932 | 32890 ft | 437 kts | 174° |
| 2026-04-26 03:22 | 37.76454 | -119.69971 | 32891 ft | 436 kts | 174° |
| 2026-04-26 03:22 | 37.70454 | -119.69016 | 32890 ft | 436 kts | 174° |
| 2026-04-26 03:23 | 37.64429 | -119.68058 | 32895 ft | 436 kts | 174° |
| 2026-04-26 03:23 | 37.58402 | -119.67101 | 32898 ft | 436 kts | 174° |
| 2026-04-26 03:24 | 37.52372 | -119.66146 | 32897 ft | 436 kts | 174° |
| 2026-04-26 03:24 | 37.46386 | -119.65199 | 32897 ft | 436 kts | 174° |
| 2026-04-26 03:25 | 37.40347 | -119.64245 | 32902 ft | 437 kts | 174° |
| 2026-04-26 03:25 | 37.34316 | -119.63294 | 32898 ft | 437 kts | 174° |
| 2026-04-26 03:26 | 37.28281 | -119.62344 | 32898 ft | 437 kts | 174° |
| 2026-04-26 03:26 | 37.22281 | -119.61401 | 32897 ft | 437 kts | 174° |
| 2026-04-26 03:27 | 37.16240 | -119.60453 | 32898 ft | 437 kts | 174° |
| 2026-04-26 03:27 | 37.10254 | -119.59700 | 32926 ft | 435 kts | 183° |
| 2026-04-26 03:28 | 37.04231 | -119.60534 | 32912 ft | 436 kts | 188° |